Time;durP1;ratioP1;P1;durP2;ratioP2;P2;SDS_P1;SDS_P2;PMS_P1;PMS_P2;Temp;Humidity;BMP_temperature;BMP_pressure;BME280_temperature;BME280_humidity;BME280_pressure;Samples;Min_cycle;Max_cycle;Signal;HPM_P1;HPM_P2
2022/04/17 00:00:53;;;;;;;22.22;17.32;;;;;;;9.99;100.00;100783.81;1737362;82;21013;-80
2022/04/17 00:03:21;;;;;;;21.62;15.63;;;;;;;10.02;100.00;100779.68;1737381;82;21693;-78
2022/04/17 00:05:50;;;;;;;19.17;15.05;;;;;;;10.00;100.00;100781.09;1725580;81;21566;-76
2022/04/17 00:08:19;;;;;;;15.05;12.70;;;;;;;9.98;100.00;100789.47;1729979;82;21029;-77
2022/04/17 00:10:48;;;;;;;13.75;11.73;;;;;;;9.93;100.00;100780.69;1731422;82;22327;-77
2022/04/17 00:13:16;;;;;;;14.45;12.03;;;;;;;9.84;100.00;100774.84;1737645;82;21680;-76
2022/04/17 00:15:43;;;;;;;13.25;10.82;;;;;;;9.73;100.00;100774.30;1737981;82;21040;-76
2022/04/17 00:18:12;;;;;;;12.93;10.25;;;;;;;9.63;100.00;100766.76;1737719;82;21012;-76
2022/04/17 00:20:40;;;;;;;12.43;10.25;;;;;;;9.55;100.00;100767.27;1737798;82;21546;-76
2022/04/17 00:23:08;;;;;;;10.48;8.88;;;;;;;9.50;100.00;100771.96;1737455;82;21521;-80
2022/04/17 00:25:36;;;;;;;8.80;7.80;;;;;;;9.42;100.00;100778.97;1737113;82;21090;-77
2022/04/17 00:28:06;;;;;;;7.75;7.05;;;;;;;9.37;100.00;100784.14;1741648;81;21119;-77
2022/04/17 00:30:33;;;;;;;8.03;6.70;;;;;;;9.31;100.00;100785.38;1748995;80;21103;-77
2022/04/17 00:33:02;;;;;;;7.05;6.35;;;;;;;9.26;100.00;100786.13;1748891;80;21581;-77
2022/04/17 00:35:31;;;;;;;7.55;6.17;;;;;;;9.22;100.00;100781.61;1748929;81;21079;-82
2022/04/17 00:37:58;;;;;;;7.67;6.87;;;;;;;9.19;100.00;100777.08;1748428;82;21103;-81
2022/04/17 00:40:26;;;;;;;6.40;5.75;;;;;;;9.18;100.00;100784.51;1748309;80;21064;-77
2022/04/17 00:42:55;;;;;;;6.53;5.92;;;;;;;9.17;100.00;100790.66;1748397;80;21108;-77
2022/04/17 00:45:22;;;;;;;6.17;5.60;;;;;;;9.14;100.00;100791.67;1748834;80;21178;-77
2022/04/17 00:47:50;;;;;;;6.72;6.03;;;;;;;9.11;100.00;100792.72;1748953;80;22246;-77
2022/04/17 00:50:19;;;;;;;6.50;5.90;;;;;;;9.11;100.00;100794.50;1748861;80;21064;-82
2022/04/17 00:52:47;;;;;;;7.20;6.15;;;;;;;9.09;100.00;100794.58;1748932;80;21032;-78
2022/04/17 00:55:16;;;;;;;7.33;6.33;;;;;;;9.09;100.00;100801.55;1748816;80;21049;-77
2022/04/17 00:57:45;;;;;;;7.33;6.62;;;;;;;9.08;100.00;100805.93;1748764;81;20946;-78
2022/04/17 01:00:13;;;;;;;7.58;6.90;;;;;;;9.08;100.00;100802.48;1749224;80;21127;-77
2022/04/17 01:02:40;;;;;;;8.53;7.62;;;;;;;9.07;100.00;100800.36;1749029;80;21668;-77
2022/04/17 01:05:09;;;;;;;8.28;7.47;;;;;;;9.06;100.00;100801.30;1745493;80;20982;-77
2022/04/17 01:07:38;;;;;;;8.15;7.35;;;;;;;9.06;100.00;100810.38;1748992;80;21037;-78
2022/04/17 01:10:08;;;;;;;8.48;7.60;;;;;;;9.05;100.00;100808.72;1748977;80;21514;-77
2022/04/17 01:12:37;;;;;;;9.05;7.90;;;;;;;9.06;100.00;100804.34;1749205;80;21794;-77
2022/04/17 01:15:07;;;;;;;8.33;7.53;;;;;;;9.07;100.00;100792.56;1749044;80;21028;-78
2022/04/17 01:17:35;;;;;;;8.73;7.92;;;;;;;9.09;100.00;100793.76;1749411;80;21055;-77
2022/04/17 01:20:06;;;;;;;8.95;8.15;;;;;;;9.11;100.00;100791.90;1748781;80;21609;-82
2022/04/17 01:22:33;;;;;;;8.93;8.13;;;;;;;9.14;100.00;100792.98;1749239;80;21614;-77
2022/04/17 01:27:48;;;;;;;10.48;9.30;;;;;;;9.18;100.00;100808.74;1751601;80;21080;-77
2022/04/17 01:30:16;;;;;;;9.60;8.70;;;;;;;9.19;100.00;100812.16;1774946;80;21560;-78
2022/04/17 01:32:44;;;;;;;9.00;7.80;;;;;;;9.17;100.00;100805.77;1774426;80;21032;-77
2022/04/17 01:35:11;;;;;;;7.28;6.55;;;;;;;9.15;100.00;100809.78;1774665;80;21064;-77
2022/04/17 01:37:40;;;;;;;6.05;5.45;;;;;;;9.13;100.00;100806.45;1774969;80;21522;-76
2022/04/17 01:40:08;;;;;;;5.47;4.95;;;;;;;9.04;100.00;100818.73;1774861;80;20996;-75
2022/04/17 01:42:36;;;;;;;4.90;4.45;;;;;;;8.87;100.00;100812.50;1769607;79;21052;-79
2022/04/17 01:45:04;;;;;;;5.03;4.53;;;;;;;8.70;100.00;100807.11;1778701;79;21623;-76
2022/04/17 01:47:31;;;;;;;5.12;4.62;;;;;;;8.58;100.00;100817.81;1774803;80;21106;-75
2022/04/17 01:49:59;;;;;;;5.60;5.10;;;;;;;8.45;100.00;100820.31;1774688;80;21667;-76
2022/04/17 01:52:27;;;;;;;6.05;5.45;;;;;;;8.35;100.00;100817.47;1774386;80;20948;-79
2022/04/17 01:54:55;;;;;;;5.72;5.22;;;;;;;8.27;100.00;100819.23;1774748;80;21576;-77
2022/04/17 01:57:22;;;;;;;6.80;5.53;;;;;;;8.18;100.00;100826.28;1774921;80;21036;-76
2022/04/17 01:59:49;;;;;;;6.22;5.70;;;;;;;8.14;100.00;100828.71;1775063;80;21086;-76
2022/04/17 02:02:16;;;;;;;6.60;5.95;;;;;;;8.08;100.00;100826.02;1773532;79;21063;-76
2022/04/17 02:04:44;;;;;;;6.33;5.72;;;;;;;8.01;100.00;100829.92;1772137;79;21094;-78
2022/04/17 02:07:11;;;;;;;6.35;5.75;;;;;;;7.92;100.00;100831.33;1774502;79;21042;-76
2022/04/17 02:09:40;;;;;;;6.30;5.70;;;;;;;7.85;100.00;100836.04;1763460;80;20986;-77
2022/04/17 02:12:08;;;;;;;6.53;5.87;;;;;;;7.82;100.00;100840.09;1748204;81;21531;-76
2022/04/17 02:14:35;;;;;;;6.00;5.50;;;;;;;7.80;100.00;100845.86;1691060;82;21151;-81
2022/04/17 02:17:02;;;;;;;6.10;5.58;;;;;;;7.79;100.00;100844.19;1711474;82;21037;-76
2022/04/17 02:19:30;;;;;;;6.75;6.12;;;;;;;7.74;100.00;100847.05;1712024;82;21573;-76
2022/04/17 02:21:57;;;;;;;5.92;5.37;;;;;;;7.69;100.00;100851.66;1711570;83;21290;-76
2022/04/17 02:24:24;;;;;;;5.97;5.47;;;;;;;7.66;100.00;100853.16;1712176;83;21041;-75
2022/04/17 02:26:53;;;;;;;6.33;5.72;;;;;;;7.64;100.00;100849.81;1711045;81;21027;-76
2022/04/17 02:29:20;;;;;;;6.20;5.65;;;;;;;7.60;100.00;100855.27;1711338;82;21688;-76
2022/04/17 02:31:47;;;;;;;6.35;5.65;;;;;;;7.56;100.00;100848.13;1720811;83;21621;-75
2022/04/17 02:34:15;;;;;;;6.33;5.72;;;;;;;7.51;100.00;100858.77;1731793;82;21535;-79
2022/04/17 02:36:42;;;;;;;6.30;5.70;;;;;;;7.48;100.00;100864.15;1787632;80;21023;-79
2022/04/17 02:39:09;;;;;;;6.90;6.00;;;;;;;7.44;100.00;100863.94;1787771;80;21787;-79
2022/04/17 02:41:36;;;;;;;6.53;5.92;;;;;;;7.38;100.00;100860.41;1787571;80;21065;-80
2022/04/17 02:44:05;;;;;;;6.37;5.78;;;;;;;7.34;100.00;100859.76;1783959;80;21600;-80
2022/04/17 02:49:18;;;;;;;5.60;5.03;;;;;;;7.33;100.00;100862.45;1773861;80;21058;-80
2022/04/17 02:51:46;;;;;;;5.78;5.28;;;;;;;7.28;100.00;100865.73;1773507;80;21187;-78
2022/04/17 02:54:13;;;;;;;5.75;5.25;;;;;;;7.22;100.00;100867.77;1773838;80;21004;-81
2022/04/17 02:56:42;;;;;;;5.75;5.25;;;;;;;7.16;100.00;100865.53;1774085;80;21262;-75
2022/04/17 02:59:09;;;;;;;5.85;5.25;;;;;;;7.13;100.00;100866.99;1774071;80;20999;-76
2022/04/17 03:07:09;;;;;;;5.78;5.22;;;;;;;7.01;100.00;100859.93;1773855;80;21043;-80
2022/04/17 03:09:38;;;;;;;5.85;5.25;;;;;;;7.00;100.00;100855.67;1773236;79;21035;-75
2022/04/17 03:12:06;;;;;;;8.05;6.28;;;;;;;6.98;100.00;100866.56;1773295;80;21051;-74
2022/04/17 03:14:33;;;;;;;8.38;6.55;;;;;;;6.89;100.00;100870.52;1773506;80;21578;-75
2022/04/17 03:17:04;;;;;;;7.20;6.50;;;;;;;6.80;100.00;100873.12;1773830;80;21031;-75
2022/04/17 03:19:33;;;;;;;8.35;6.50;;;;;;;6.74;100.00;100875.59;1773781;80;21114;-74
2022/04/17 03:22:00;;;;;;;6.97;6.28;;;;;;;6.71;100.00;100883.98;1774132;80;20999;-75
2022/04/17 03:24:29;;;;;;;6.62;6.03;;;;;;;6.64;100.00;100886.09;1773895;80;21063;-75
2022/04/17 03:26:56;;;;;;;8.18;7.00;;;;;;;6.60;100.00;100885.87;1774356;80;21026;-74
2022/04/17 03:29:23;;;;;;;7.50;6.75;;;;;;;6.61;100.00;100892.72;1771201;80;21492;-75
2022/04/17 03:31:51;;;;;;;7.45;6.72;;;;;;;6.56;100.00;100896.84;1761436;81;20997;-76
2022/04/17 03:34:20;;;;;;;7.80;7.00;;;;;;;6.50;100.00;100892.00;1753731;81;21051;-76
2022/04/17 03:36:48;;;;;;;7.05;6.33;;;;;;;6.46;100.00;100903.41;1769968;79;21092;-76
2022/04/17 03:39:15;;;;;;;7.62;6.83;;;;;;;6.39;100.00;100908.55;1770641;81;21044;-78
2022/04/17 03:41:43;;;;;;;9.13;6.72;;;;;;;6.35;100.00;100913.05;1770640;80;21656;-80
2022/04/17 03:44:11;;;;;;;8.18;7.05;;;;;;;6.36;100.00;100916.48;1774335;80;21533;-78
2022/04/17 03:46:39;;;;;;;8.20;7.10;;;;;;;6.35;100.00;100907.05;1775993;80;21071;-76
2022/04/17 03:49:07;;;;;;;7.85;7.05;;;;;;;6.34;100.00;100907.96;1775587;80;20989;-75
2022/04/17 03:51:34;;;;;;;9.33;7.78;;;;;;;6.34;100.00;100906.20;1782895;79;21064;-74
2022/04/17 03:54:01;;;;;;;8.90;8.00;;;;;;;6.35;100.00;100901.87;1781302;80;21635;-75
2022/04/17 03:56:29;;;;;;;9.40;7.87;;;;;;;6.29;100.00;100903.84;1781085;80;21046;-76
2022/04/17 03:58:57;;;;;;;9.60;7.90;;;;;;;6.28;100.00;100903.94;1781158;79;21045;-80
2022/04/17 04:01:26;;;;;;;9.60;8.60;;;;;;;6.25;100.00;100906.70;1781064;79;21072;-80
2022/04/17 04:03:54;;;;;;;8.63;7.72;;;;;;;6.22;100.00;100906.38;1781326;79;21018;-76
2022/04/17 04:06:21;;;;;;;8.68;7.10;;;;;;;6.26;100.00;100910.94;1781286;79;21684;-75
2022/04/17 04:08:49;;;;;;;9.20;7.78;;;;;;;6.27;100.00;100909.58;1781434;79;20984;-75
2022/04/17 04:11:20;;;;;;;10.45;8.23;;;;;;;6.28;100.00;100907.38;1773794;79;21117;-74
2022/04/17 04:13:48;;;;;;;9.18;7.67;;;;;;;6.28;100.00;100912.55;1741566;82;20976;-75
2022/04/17 04:16:17;;;;;;;9.75;8.08;;;;;;;6.28;100.00;100919.45;1741397;81;21580;-74
2022/04/17 04:18:45;;;;;;;8.73;7.83;;;;;;;6.28;100.00;100919.02;1748581;81;21164;-74
2022/04/17 04:21:13;;;;;;;9.00;7.83;;;;;;;6.30;100.00;100922.34;1765441;80;20979;-77
2022/04/17 04:23:41;;;;;;;10.55;8.10;;;;;;;6.31;100.00;100918.84;1765975;81;20996;-75
2022/04/17 04:26:08;;;;;;;9.45;8.45;;;;;;;6.33;100.00;100916.62;1765291;80;21683;-76
2022/04/17 04:28:37;;;;;;;10.82;8.38;;;;;;;6.34;100.00;100911.37;1765231;80;21079;-78
2022/04/17 04:31:10;;;;;;;10.53;8.55;;;;;;;6.35;100.00;100913.52;1765446;80;21222;-76
2022/04/17 04:33:40;;;;;;;10.65;9.05;;;;;;;6.34;100.00;100914.42;1750849;79;21308;-75
2022/04/17 04:36:11;;;;;;;10.70;8.90;;;;;;;6.33;100.00;100914.05;1754182;80;21877;-74
2022/04/17 04:38:40;;;;;;;9.63;8.23;;;;;;;6.33;100.00;100912.28;1749322;81;21555;-74
2022/04/17 04:41:09;;;;;;;11.55;8.73;;;;;;;6.31;100.00;100910.26;1759840;81;21585;-75
2022/04/17 04:43:36;;;;;;;11.10;9.10;;;;;;;6.27;100.00;100907.00;1760827;81;21121;-75
2022/04/17 04:46:06;;;;;;;9.78;8.80;;;;;;;6.26;100.00;100904.47;1759143;81;21093;-75
2022/04/17 04:51:26;;;;;;;10.68;9.20;;;;;;;6.30;100.00;100905.52;1748515;81;21637;-74
2022/04/17 04:53:56;;;;;;;12.13;9.80;;;;;;;6.31;100.00;100905.91;1738117;81;21080;-81
2022/04/17 04:56:25;;;;;;;10.90;8.90;;;;;;;6.30;100.00;100907.29;1745542;82;21788;-75
2022/04/17 04:58:53;;;;;;;9.75;8.75;;;;;;;6.34;100.00;100917.02;1746421;82;21504;-76
2022/04/17 05:01:21;;;;;;;10.38;9.28;;;;;;;6.36;100.00;100923.77;1746268;82;21057;-75
2022/04/17 05:03:48;;;;;;;11.18;9.15;;;;;;;6.41;100.00;100930.00;1747199;81;21085;-78
2022/04/17 05:06:16;;;;;;;10.13;8.40;;;;;;;6.44;100.00;100940.20;1751574;81;21061;-74
2022/04/17 05:08:44;;;;;;;9.13;8.03;;;;;;;6.44;100.00;100937.14;1751627;81;21953;-75
2022/04/17 05:11:11;;;;;;;9.95;8.78;;;;;;;6.46;100.00;100941.78;1751451;81;21003;-74
2022/04/17 05:13:38;;;;;;;9.98;8.68;;;;;;;6.47;100.00;100949.92;1751432;81;21531;-76
2022/04/17 05:16:06;;;;;;;11.95;9.13;;;;;;;6.49;100.00;100951.13;1751888;81;21484;-77
2022/04/17 05:18:34;;;;;;;10.13;8.23;;;;;;;6.49;100.00;100951.59;1751407;81;44488;-75
2022/04/17 05:21:04;;;;;;;9.38;8.18;;;;;;;6.51;100.00;100954.92;1714708;81;20985;-74
2022/04/17 05:23:32;;;;;;;11.15;8.10;;;;;;;6.52;100.00;100951.42;1767972;81;21037;-74
2022/04/17 05:26:02;;;;;;;9.60;7.50;;;;;;;6.47;100.00;100951.66;1768100;80;21468;-74
2022/04/17 05:28:31;;;;;;;9.30;7.53;;;;;;;6.43;100.00;100952.75;1767162;79;21009;-74
2022/04/17 05:31:00;;;;;;;9.10;7.58;;;;;;;6.39;100.00;100942.17;1735924;79;21580;-79
2022/04/17 05:33:27;;;;;;;8.95;7.03;;;;;;;6.38;100.00;100943.08;1719618;81;21117;-81
2022/04/17 05:35:55;;;;;;;9.45;8.18;;;;;;;6.40;100.00;100941.26;1724533;81;21051;-79
2022/04/17 05:38:22;;;;;;;9.78;7.50;;;;;;;6.43;100.00;100942.41;1724794;82;21082;-75
2022/04/17 05:40:51;;;;;;;10.60;8.43;;;;;;;6.43;100.00;100940.64;1725732;82;21064;-75
2022/04/17 05:43:21;;;;;;;11.25;9.38;;;;;;;6.40;100.00;100930.47;1749897;80;21094;-75
2022/04/17 05:45:49;;;;;;;10.45;8.68;;;;;;;6.38;100.00;100937.91;1802774;79;21153;-75
2022/04/17 05:48:18;;;;;;;10.10;9.10;;;;;;;6.40;100.00;100937.38;1817106;78;21017;-76
2022/04/17 05:50:45;;;;;;;12.07;9.83;;;;;;;6.44;100.00;100944.08;1806923;79;21026;-75
2022/04/17 05:53:14;;;;;;;13.40;10.43;;;;;;;6.50;100.00;100955.39;1777064;80;21016;-76
2022/04/17 05:55:42;;;;;;;12.35;9.83;;;;;;;6.54;100.00;100958.18;1817672;78;21527;-75
2022/04/17 05:58:09;;;;;;;12.75;11.03;;;;;;;6.55;100.00;100963.73;1806761;79;21173;-74
2022/04/17 06:00:37;;;;;;;10.53;9.43;;;;;;;6.56;100.00;100960.70;1806821;79;21089;-75
2022/04/17 06:03:05;;;;;;;10.88;9.28;;;;;;;6.53;100.00;100969.44;1751869;79;21034;-75
2022/04/17 06:05:33;;;;;;;9.88;8.15;;;;;;;6.53;100.00;100975.91;1758848;80;21066;-78
2022/04/17 06:08:00;;;;;;;10.00;8.70;;;;;;;6.52;100.00;100976.85;1785385;80;21587;-79
2022/04/17 06:10:31;;;;;;;8.95;7.70;;;;;;;6.54;100.00;100976.77;1793334;79;21579;-75
2022/04/17 06:12:58;;;;;;;10.48;8.33;;;;;;;6.55;100.00;100977.14;1792954;79;20999;-74
2022/04/17 06:15:27;;;;;;;8.98;7.60;;;;;;;6.55;100.00;100970.67;1793182;79;21030;-79
2022/04/17 06:17:54;;;;;;;9.13;7.53;;;;;;;6.54;100.00;100977.58;1770015;79;21001;-78
2022/04/17 06:20:23;;;;;;;8.55;7.53;;;;;;;6.55;100.00;100984.44;1765898;80;21058;-78
2022/04/17 06:22:51;;;;;;;10.82;8.85;;;;;;;6.56;100.00;100978.34;1766989;81;21163;-75
2022/04/17 06:25:18;;;;;;;10.18;8.60;;;;;;;6.55;100.00;100977.14;1767446;81;21099;-75
2022/04/17 06:27:48;;;;;;;10.28;8.28;;;;;;;6.53;100.00;100978.50;1743345;80;20983;-76
2022/04/17 06:30:20;;;;;;;9.95;8.80;;;;;;;6.54;100.00;100983.23;1758173;81;20991;-77
2022/04/17 06:32:48;;;;;;;11.40;8.60;;;;;;;6.54;100.00;100987.11;1769107;81;21053;-75
2022/04/17 06:35:17;;;;;;;12.45;9.10;;;;;;;6.56;100.00;100995.64;1769036;81;21216;-75
2022/04/17 06:37:55;;;;;;;11.75;8.93;;;;;;;6.60;100.00;100995.41;1769375;81;21508;-81
2022/04/17 06:40:33;;;;;;;10.48;9.10;;;;;;;6.63;100.00;101004.28;1764459;81;21101;-76
2022/04/17 06:43:05;;;;;;;10.10;8.60;;;;;;;6.62;100.00;101001.31;1720162;80;21072;-80
2022/04/17 06:45:37;;;;;;;12.73;8.30;;;;;;;6.65;100.00;101000.78;1746805;80;21114;-75
2022/04/17 06:48:21;;;;;;;10.93;8.30;;;;;;;6.65;100.00;101004.66;1759284;80;21985;-76
2022/04/17 06:50:53;;;;;;;9.50;8.28;;;;;;;6.66;100.00;101001.98;1754222;81;21035;-75
2022/04/17 06:53:20;;;;;;;10.72;8.80;;;;;;;6.70;100.00;101002.66;1764683;81;21017;-75
2022/04/17 06:55:48;;;;;;;10.50;8.68;;;;;;;6.75;100.00;101007.15;1764429;81;21048;-75
2022/04/17 06:58:17;;;;;;;11.10;8.50;;;;;;;6.81;100.00;101004.70;1764088;81;21087;-76
2022/04/17 07:00:45;;;;;;;10.75;8.68;;;;;;;6.82;100.00;101007.64;1763702;81;21895;-75
2022/04/17 07:03:14;;;;;;;10.58;8.45;;;;;;;6.82;100.00;101010.23;1763831;81;21082;-78
2022/04/17 07:05:44;;;;;;;9.38;7.78;;;;;;;6.83;100.00;101008.88;1749742;80;21048;-75
2022/04/17 07:08:11;;;;;;;9.50;7.55;;;;;;;6.85;100.00;101011.38;1754030;80;21668;-75
2022/04/17 07:10:41;;;;;;;12.43;8.23;;;;;;;6.88;100.00;101017.22;1761768;81;21059;-79
2022/04/17 07:13:18;;;;;;;9.33;7.60;;;;;;;6.91;100.00;101002.83;1764010;81;21268;-77
2022/04/17 07:15:43;;;;;;;10.05;7.87;;;;;;;6.94;100.00;101013.00;1764013;80;21032;-76
2022/04/17 07:18:13;;;;;;;9.08;7.83;;;;;;;6.97;100.00;101016.36;1764167;81;20985;-76
2022/04/17 07:20:41;;;;;;;8.53;6.75;;;;;;;7.01;100.00;101025.64;1764206;80;21190;-75
2022/04/17 07:23:09;;;;;;;8.98;7.35;;;;;;;7.04;100.00;101021.58;1764457;81;21565;-75
2022/04/17 07:25:37;;;;;;;9.20;7.17;;;;;;;7.01;100.00;101021.29;1763966;81;21117;-75
2022/04/17 07:28:14;;;;;;;10.23;8.10;;;;;;;7.00;100.00;101020.91;1763858;81;21048;-77
2022/04/17 07:30:42;;;;;;;10.13;7.90;;;;;;;7.02;100.00;101022.11;1762262;81;21525;-79
2022/04/17 07:33:09;;;;;;;9.48;7.40;;;;;;;7.05;100.00;101025.38;1755049;81;21071;-79
2022/04/17 07:35:38;;;;;;;11.90;8.48;;;;;;;7.07;100.00;101026.61;1733999;82;21010;-75
2022/04/17 07:38:06;;;;;;;11.65;7.90;;;;;;;7.14;100.00;101032.27;1749609;80;22144;-76
2022/04/17 07:40:35;;;;;;;11.35;7.78;;;;;;;7.16;100.00;101031.30;1731245;81;21019;-75
2022/04/17 07:43:04;;;;;;;9.68;7.58;;;;;;;7.14;100.00;101034.42;1714510;82;21049;-78
2022/04/17 07:45:34;;;;;;;9.50;7.92;;;;;;;7.14;100.00;101030.53;1714759;83;21026;-75
2022/04/17 07:48:01;;;;;;;11.28;7.78;;;;;;;7.13;100.00;101024.97;1714609;83;21025;-75
2022/04/17 07:50:31;;;;;;;11.30;7.72;;;;;;;7.13;100.00;101021.56;1722566;81;21160;-75
2022/04/17 07:53:00;;;;;;;10.80;7.58;;;;;;;7.13;100.00;101021.56;1745251;81;21028;-76
2022/04/17 07:55:27;;;;;;;9.13;7.17;;;;;;;7.14;100.00;101017.58;1772884;80;21057;-78
2022/04/17 07:57:59;;;;;;;9.78;7.50;;;;;;;7.13;100.00;101017.20;1756424;80;21546;-80
2022/04/17 08:00:28;;;;;;;10.55;7.62;;;;;;;7.14;100.00;101019.32;1735982;81;21802;-75
2022/04/17 08:03:06;;;;;;;8.73;7.08;;;;;;;7.14;100.00;101002.48;1748989;80;21738;-76
2022/04/17 08:05:25;;;;;;;9.30;7.28;;;;;;;7.14;100.00;100998.16;1723875;82;21144;-76
2022/04/17 08:07:53;;;;;;;10.95;7.10;;;;;;;7.17;100.00;100992.79;1762879;79;21041;-76
2022/04/17 08:10:22;;;;;;;9.30;7.22;;;;;;;7.19;100.00;100998.73;1764956;81;21041;-74
2022/04/17 08:12:51;;;;;;;8.78;6.80;;;;;;;7.21;100.00;101000.78;1773095;80;21053;-74
2022/04/17 08:15:18;;;;;;;11.60;7.03;;;;;;;7.28;100.00;100999.15;1779275;80;21137;-74
2022/04/17 08:17:48;;;;;;;11.57;7.92;;;;;;;7.34;100.00;100997.51;1779017;80;21030;-75
2022/04/17 08:20:17;;;;;;;9.60;7.35;;;;;;;7.33;100.00;100999.75;1774431;80;21104;-77
2022/04/17 08:22:44;;;;;;;9.30;7.00;;;;;;;7.32;100.00;101007.96;1755391;79;21580;-77
2022/04/17 08:25:15;;;;;;;9.30;6.83;;;;;;;7.32;100.00;101005.84;1771551;79;21012;-81
2022/04/17 08:27:53;;;;;;;8.60;6.50;;;;;;;7.33;100.00;101014.00;1776503;80;21539;-77
2022/04/17 08:30:23;;;;;;;8.70;6.55;;;;;;;7.38;100.00;101001.61;1774685;80;21034;-78
2022/04/17 08:32:50;;;;;;;8.45;6.28;;;;;;;7.41;100.00;100990.62;1782282;80;21256;-78
2022/04/17 08:35:18;;;;;;;8.05;6.50;;;;;;;7.42;100.00;100995.33;1782476;80;21520;-77
2022/04/17 08:37:47;;;;;;;8.38;6.78;;;;;;;7.45;100.00;100996.94;1781907;80;21038;-77
2022/04/17 08:40:16;;;;;;;8.98;6.78;;;;;;;7.47;100.00;100990.74;1762137;79;21135;-78
2022/04/17 08:42:45;;;;;;;7.53;6.05;;;;;;;7.52;100.00;100988.72;1759862;80;21042;-81
2022/04/17 08:45:13;;;;;;;9.73;7.95;;;;;;;7.57;100.00;101001.41;1743718;81;21507;-78
2022/04/17 08:47:43;;;;;;;7.72;5.97;;;;;;;7.60;100.00;101001.25;1766972;80;21085;-83
2022/04/17 08:50:16;;;;;;;8.83;7.12;;;;;;;7.66;100.00;100998.75;1756368;79;21026;-81
2022/04/17 08:52:53;;;;;;;7.15;5.72;;;;;;;7.66;100.00;101005.23;1765335;80;21118;-76
2022/04/17 08:55:22;;;;;;;7.35;5.83;;;;;;;7.61;100.00;101011.97;1753776;80;21075;-79
2022/04/17 08:57:50;;;;;;;7.05;5.92;;;;;;;7.57;100.00;101010.48;1774345;79;21551;-77
2022/04/17 09:00:21;;;;;;;7.25;5.55;;;;;;;7.52;100.00;101005.56;1750249;80;21492;-76
2022/04/17 09:02:50;;;;;;;7.45;5.78;;;;;;;7.45;100.00;100999.05;1774986;80;21007;-77
2022/04/17 09:05:20;;;;;;;6.62;5.17;;;;;;;7.45;100.00;100991.28;1774898;80;21123;-77
2022/04/17 09:07:56;;;;;;;6.65;5.65;;;;;;;7.51;100.00;100988.81;1774554;79;21030;-76
2022/04/17 09:10:28;;;;;;;8.30;5.53;;;;;;;7.53;100.00;100979.20;1775256;80;21650;-77
2022/04/17 09:13:02;;;;;;;7.83;7.00;;;;;;;7.58;100.00;100984.95;1759151;80;21054;-77
2022/04/17 09:15:33;;;;;;;6.42;5.05;;;;;;;7.62;100.00;100981.72;1764426;80;21128;-77
2022/04/17 09:18:07;;;;;;;4.85;4.22;;;;;;;7.66;100.00;100980.61;1737935;81;21382;-78
2022/04/17 09:20:36;;;;;;;10.28;6.05;;;;;;;7.68;100.00;100974.88;1766467;80;21521;-81
2022/04/17 09:23:03;;;;;;;7.20;5.75;;;;;;;7.66;100.00;100974.98;1746013;80;21576;-83
2022/04/17 09:25:33;;;;;;;5.75;4.50;;;;;;;7.66;100.00;100973.69;1733499;82;21011;-77
2022/04/17 09:28:07;;;;;;;4.62;4.05;;;;;;;7.69;100.00;100976.08;1738261;79;21939;-78
2022/04/17 09:30:39;;;;;;;5.45;4.60;;;;;;;7.74;100.00;100972.78;1762480;80;21512;-78
2022/04/17 09:33:13;;;;;;;5.72;4.87;;;;;;;7.82;100.00;100965.02;1755836;81;21037;-79
2022/04/17 09:35:55;;;;;;;6.50;4.62;;;;;;;7.83;100.00;100961.51;1755740;81;21046;-77
2022/04/17 09:38:28;;;;;;;7.55;5.85;;;;;;;7.86;100.00;100948.35;1758467;81;21050;-81
2022/04/17 09:43:47;;;;;;;5.40;4.42;;;;;;;7.92;100.00;100958.83;1742114;81;21069;-82
2022/04/17 09:46:14;;;;;;;;;;;;;;;7.92;100.00;100962.27;1745589;81;21086;-76
2022/04/17 09:48:44;;;;;;;5.28;4.22;;;;;;;7.87;100.00;100969.02;1747370;81;20174;-77
2022/04/17 09:51:27;;;;;;;5.37;4.12;;;;;;;7.83;100.00;100971.88;1743621;81;21049;-77
2022/04/17 09:54:06;;;;;;;6.22;4.62;;;;;;;7.82;100.00;100973.63;1744318;81;21599;-79
2022/04/17 09:56:43;;;;;;;5.42;4.17;;;;;;;7.85;100.00;100970.05;1747445;82;21061;-79
2022/04/17 09:59:20;;;;;;;5.72;4.28;;;;;;;7.84;100.00;100962.70;1747447;82;21100;-78
2022/04/17 10:01:52;;;;;;;5.15;4.05;;;;;;;7.87;100.00;100965.58;1747563;81;21649;-80
2022/04/17 10:04:25;;;;;;;5.62;4.22;;;;;;;7.88;100.00;100960.33;1747836;82;21062;-82
2022/04/17 10:06:54;;;;;;;;;;;;;;;7.87;100.00;100957.80;1734145;82;20989;-77
2022/04/17 10:09:23;;;;;;;6.30;4.12;;;;;;;7.86;100.00;100947.05;1742391;82;20132;-79
2022/04/17 10:11:51;;;;;;;6.78;4.85;;;;;;;7.85;100.00;100957.91;1738938;82;21073;-77
2022/04/17 10:14:20;;;;;;;6.85;5.35;;;;;;;7.89;100.00;100959.85;1759922;81;21003;-77
2022/04/17 10:16:48;;;;;;;6.00;5.20;;;;;;;7.92;100.00;100961.42;1731769;82;21448;-79
2022/04/17 10:19:24;;;;;;;4.87;4.33;;;;;;;7.93;100.00;100972.17;1735863;81;21360;-80
2022/04/17 10:21:52;;;;;;;5.35;4.12;;;;;;;7.96;100.00;100968.94;1756956;79;21518;-83
2022/04/17 10:24:21;;;;;;;6.40;4.58;;;;;;;7.98;100.00;100976.62;1758402;80;21067;-78
2022/04/17 10:26:52;;;;;;;5.05;4.17;;;;;;;8.01;100.00;100964.78;1763317;81;21528;-77
2022/04/17 10:29:39;;;;;;;5.67;4.30;;;;;;;8.03;100.00;100970.72;1763290;80;21027;-77
2022/04/17 10:32:54;;;;;;;5.92;4.37;;;;;;;8.04;100.00;100980.99;1760494;80;21075;-77
2022/04/17 10:36:05;;;;;;;4.72;4.28;;;;;;;8.01;100.00;100986.83;1761513;81;21621;-78
2022/04/17 10:39:12;;;;;;;;;;;;;;;7.96;100.00;100979.78;1760726;80;21062;-80
2022/04/17 10:41:41;;;;;;;4.37;3.98;;;;;;;7.90;100.00;100974.48;1737000;80;20218;-79
2022/04/17 10:44:13;;;;;;;3.50;3.20;;;;;;;7.92;100.00;100979.58;1754195;80;21073;-80
2022/04/17 10:46:50;;;;;;;4.22;3.83;;;;;;;7.96;100.00;100986.27;1756757;80;21093;-77
2022/04/17 10:49:20;;;;;;;5.08;4.35;;;;;;;7.99;100.00;100984.77;1713972;82;21972;-77
2022/04/17 10:51:57;;;;;;;4.60;4.20;;;;;;;8.02;100.00;100982.84;1737250;82;21082;-77
2022/04/17 10:54:25;;;;;;;4.37;3.72;;;;;;;8.06;100.00;100986.08;1732902;80;21010;-82
2022/04/17 10:57:00;;;;;;;5.03;4.03;;;;;;;8.11;100.00;100981.92;1792304;80;21351;-79
2022/04/17 10:59:33;;;;;;;4.80;4.10;;;;;;;8.13;100.00;100992.58;1792436;79;21065;-77
2022/04/17 11:02:19;;;;;;;3.87;3.50;;;;;;;8.13;100.00;100988.69;1771162;80;21233;-79
2022/04/17 11:04:53;;;;;;;3.75;3.35;;;;;;;8.14;100.00;100989.53;1782854;80;21030;-78
2022/04/17 11:07:30;;;;;;;3.58;3.27;;;;;;;8.15;100.00;100990.73;1743932;81;21601;-78
2022/04/17 11:10:25;;;;;;;3.22;2.90;;;;;;;8.16;100.00;100983.80;1744286;81;21021;-77
2022/04/17 11:12:55;;;;;;;3.22;2.92;;;;;;;8.15;100.00;100976.47;1761565;79;21525;-78
2022/04/17 11:15:28;;;;;;;3.20;2.90;;;;;;;8.17;100.00;100973.33;1748263;81;21084;-85
2022/04/17 11:17:59;;;;;;;3.98;3.30;;;;;;;8.19;100.00;100970.19;1755828;80;21565;-79
2022/04/17 11:20:28;;;;;;;2.95;2.75;;;;;;;8.22;100.00;100967.87;1742909;81;21015;-77
2022/04/17 11:22:55;;;;;;;2.50;2.30;;;;;;;8.24;100.00;100971.21;1734601;80;21564;-79
2022/04/17 11:25:29;;;;;;;2.90;2.70;;;;;;;8.27;100.00;100977.97;1735349;81;21059;-78
2022/04/17 11:28:02;;;;;;;3.20;2.90;;;;;;;8.29;100.00;100973.53;1729033;81;21068;-79
2022/04/17 11:30:32;;;;;;;3.98;3.30;;;;;;;8.30;100.00;100968.69;1736033;81;21075;-83
2022/04/17 11:33:01;;;;;;;3.58;3.02;;;;;;;8.33;100.00;100969.81;1729217;81;21007;-78
2022/04/17 11:35:30;;;;;;;;;;;;;;;8.34;100.00;100967.12;1756431;81;21587;-77
2022/04/17 11:38:03;;;;;;;3.00;2.70;;;;;;;8.33;100.00;100961.55;1742268;81;20194;-78
2022/04/17 11:40:36;;;;;;;3.25;3.02;;;;;;;8.31;100.00;100962.13;1743579;81;22251;-81
2022/04/17 11:43:14;;;;;;;3.75;3.33;;;;;;;8.27;100.00;100970.19;1735863;81;21036;-81
2022/04/17 11:45:46;;;;;;;3.27;2.95;;;;;;;8.22;100.00;100967.87;1746933;81;21553;-77
2022/04/17 11:48:16;;;;;;;3.17;2.87;;;;;;;8.17;100.00;100960.36;1775742;80;21054;-84
2022/04/17 11:50:48;;;;;;;2.87;2.65;;;;;;;8.15;100.00;100959.61;1735115;82;21038;-79
2022/04/17 11:53:18;;;;;;;2.80;2.60;;;;;;;8.15;100.00;100966.09;1726168;80;21171;-77